• Join FlightAware (Why Join?)
  • Login
  • US Flag 
07:29AM EDT


 

Airport Tracker/Info


-or-


 

Live Flight TrackerFlight Track Log ✈ EZY1974 ✈ 02-May-2014 ✈ LCPH / PFO - EGCC / MAN

Flight Track Log - Related Links

Times and Time Zones

All times are in EDT time to prevent confusion due to time zone crossing. See the EZY1974 flight status page for this flight to view local times or setup timezone preferences in your user account.

Time Position Orientation Groundspeed Altitude Reporting Facility
EDT Latitude Longitude Course Direction KTS MPH feet Rate Location/Type
02:55PM 34.7897 32.0700 301° West 305 351 11,500  Level FlightAware ADS-B
02:56PM 34.8181 32.0108 301° West 307 353 13,200 2,460 Climbing FlightAware ADS-B
02:56PM 34.8397 31.9657 301° West 313 360 14,400 2,220 Climbing FlightAware ADS-B
02:57PM 34.8603 31.9225 300° West 317 365 15,400 1,920 Climbing FlightAware ADS-B
02:57PM 34.8834 31.8740 301° West 327 376 16,300 1,920 Climbing FlightAware ADS-B
02:58PM 34.9074 31.8236 301° West 331 381 17,400 1,260 Climbing FlightAware ADS-B
03:11PM 35.5788 30.3839 300° West 384 442 34,200 1,260 Climbing FlightAware ADS-B
03:11PM 35.6055 30.3254 300° West 373 429 35,100 1,260 Climbing FlightAware ADS-B
03:12PM 35.6271 30.2782 300° West 372 428 35,500 600 Climbing FlightAware ADS-B
03:13PM 35.6671 30.1904 300° West 374 430 35,900 60 Climbing FlightAware ADS-B
03:19PM 36.0382 29.5575 307° West 374 430 36,000  Climbing FlightAware ADS-B
03:19PM 36.0692 29.5064 307° West 375 432 36,000  Level FlightAware ADS-B
03:20PM 36.0922 29.4683 307° West 374 430 36,000  Level FlightAware ADS-B
03:20PM 36.1058 29.4459 307° West 374 430 36,000  Level FlightAware ADS-B
03:21PM 36.2035 29.2966 307° West 374 430 36,000  Level FlightAware ADS-B
03:22PM 36.2410 29.2569 321° Northwest 381 438 36,000  Level FlightAware ADS-B
03:22PM 36.2835 29.2125 320° Northwest 381 438 36,000  Level FlightAware ADS-B
03:23PM 36.3053 29.1895 320° Northwest 381 438 36,000  Level FlightAware ADS-B
03:25PM 36.4543 29.0221 318° Northwest  Level Estimated
03:26PM 36.5355 28.9306 318° Northwest  Level Estimated
03:27PM 36.6166 28.8388 318° Northwest  Level Estimated
03:28PM 36.6976 28.7469 318° Northwest  Level Estimated
03:29PM 36.7786 28.6548 318° Northwest  Level Estimated
03:30PM 36.8595 28.5625 318° Northwest  Level Estimated
03:31PM 36.9403 28.4699 318° Northwest  Level Estimated
03:32PM 37.0210 28.3772 317° Northwest  Level Estimated
03:33PM 37.1017 28.2843 317° Northwest  Level Estimated
03:34PM 37.1823 28.1912 317° Northwest  Level Estimated
03:35PM 37.2628 28.0979 317° Northwest  Level Estimated
03:36PM 37.3433 28.0044 317° Northwest  Level Estimated
03:37PM 37.4237 27.9107 317° Northwest  Level Estimated
03:38PM 37.5040 27.8168 317° Northwest  Level Estimated
03:39PM 37.5842 27.7227 317° Northwest  Level Estimated
03:40PM 37.6644 27.6283 317° Northwest  Level Estimated
03:41PM 37.7444 27.5338 317° Northwest  Level Estimated
03:42PM 37.8245 27.4391 317° Northwest  Level Estimated
03:43PM 37.9044 27.3442 317° Northwest  Level Estimated
03:44PM 37.9842 27.2490 317° Northwest  Level Estimated
03:45PM 38.0640 27.1537 317° Northwest  Level Estimated
03:46PM 38.1437 27.0581 317° Northwest  Level Estimated
03:47PM 38.2233 26.9624 317° Northwest  Level Estimated
03:48PM 38.3029 26.8664 317° Northwest  Level Estimated
03:49PM 38.3824 26.7702 317° Northwest  Level Estimated
03:50PM 38.4617 26.6738 316° Northwest  Level Estimated
03:51PM 38.5410 26.5772 316° Northwest  Level Estimated
03:52PM 38.6203 26.4804 316° Northwest  Level Estimated
03:53PM 38.6994 26.3834 316° Northwest  Level Estimated
03:54PM 38.7785 26.2861 316° Northwest  Level Estimated
03:55PM 38.8575 26.1887 316° Northwest  Level Estimated
03:56PM 38.9364 26.0910 316° Northwest  Level Estimated
03:57PM 39.0152 25.9931 316° Northwest  Level Estimated
03:58PM 39.0939 25.8950 316° Northwest  Level Estimated
03:59PM 39.1726 25.7967 316° Northwest  Level Estimated
04:00PM 39.2512 25.6981 316° Northwest  Level Estimated
04:01PM 39.3297 25.5993 316° Northwest  Level Estimated
04:02PM 39.4081 25.5003 316° Northwest  Level Estimated
04:03PM 39.4864 25.4011 316° Northwest  Level Estimated
04:04PM 39.5647 25.3017 316° Northwest  Level Estimated
04:05PM 39.6428 25.2020 316° Northwest  Level Estimated
04:06PM 39.7209 25.1021 315° West  Level Estimated
04:07PM 39.7989 25.0020 315° West  Level Estimated
04:08PM 39.8768 24.9016 315° West  Level Estimated
04:09PM 39.9546 24.8011 315° West  Level Estimated
04:10PM 40.0367 24.6946 315° West  Level Estimated
04:11PM 40.1187 24.5878 315° West  Level Estimated
04:12PM 40.2006 24.4807 315° West  Level Estimated
04:13PM 40.2825 24.3735 315° West  Level Estimated
04:14PM 40.3642 24.2659 315° West  Level Estimated
04:15PM 40.4458 24.1581 315° West  Level Estimated
04:16PM 40.5274 24.0500 315° West  Level Estimated
04:17PM 40.6088 23.9417 315° West  Level Estimated
04:18PM 40.6901 23.8331 315° West  Level Estimated
04:19PM 40.7713 23.7242 315° West  Level Estimated
04:20PM 40.8525 23.6151 315° West  Level Estimated
04:21PM 40.9335 23.5057 314° West  Level Estimated
04:22PM 41.0144 23.3960 314° West  Level Estimated
04:23PM 41.0952 23.2861 314° West  Level Estimated
04:24PM 41.1759 23.1759 314° West  Level Estimated
04:25PM 41.2565 23.0654 314° West  Level Estimated
04:26PM 41.3370 22.9547 314° West  Level Estimated
04:27PM 41.4174 22.8436 314° West  Level Estimated
04:28PM 41.4977 22.7323 314° West  Level Estimated
04:29PM 41.5778 22.6208 314° West  Level Estimated
04:30PM 41.6579 22.5089 314° West  Level Estimated
04:31PM 41.7379 22.3968 314° West  Level Estimated
04:32PM 41.8177 22.2844 314° West  Level Estimated
04:33PM 41.8974 22.1717 314° West  Level Estimated
04:34PM 41.9771 22.0587 313° West  Level Estimated
04:35PM 42.0566 21.9454 313° West  Level Estimated
04:36PM 42.1360 21.8319 313° West  Level Estimated
04:37PM 42.2153 21.7181 313° West  Level Estimated
04:38PM 42.2945 21.6040 313° West  Level Estimated
04:39PM 42.3735 21.4896 313° West  Level Estimated
04:40PM 42.4525 21.3749 313° West  Level Estimated
04:41PM 42.5313 21.2599 313° West  Level Estimated
04:42PM 42.6100 21.1446 313° West  Level Estimated
04:43PM 42.6886 21.0291 313° West  Level Estimated
04:44PM 42.7671 20.9132 313° West  Level Estimated
04:45PM 42.8455 20.7971 313° West  Level Estimated
04:46PM 42.9238 20.6807 313° West  Level Estimated
04:47PM 43.0019 20.5639 312° West  Level Estimated
04:48PM 43.0799 20.4469 312° West  Level Estimated
04:49PM 43.1578 20.3296 312° West  Level Estimated
04:50PM 43.2356 20.2119 312° West  Level Estimated
04:51PM 43.3133 20.0940 312° West  Level Estimated
04:52PM 43.3908 19.9758 312° West  Level Estimated
04:53PM 43.4682 19.8572 312° West  Level Estimated
04:54PM 43.5455 19.7384 312° West  Level Estimated
04:55PM 43.6227 19.6193 312° West  Level Estimated
04:56PM 43.6997 19.4998 312° West  Level Estimated
04:57PM 43.7766 19.3801 312° West  Level Estimated
04:58PM 43.8534 19.2600 312° West  Level Estimated
04:59PM 43.9301 19.1396 312° West  Level Estimated
05:00PM 44.0066 19.0189 311° West  Level Estimated
05:01PM 44.0830 18.8979 311° West  Level Estimated
05:02PM 44.1593 18.7766 311° West  Level Estimated
05:03PM 44.2355 18.6550 311° West  Level Estimated
05:04PM 44.3115 18.5331 311° West  Level Estimated
05:05PM 44.3874 18.4108 311° West  Level Estimated
05:06PM 44.4632 18.2883 311° West  Level Estimated
05:07PM 44.5388 18.1654 311° West  Level Estimated
05:08PM 44.6143 18.0422 311° West  Level Estimated
05:09PM 44.6897 17.9186 311° West  Level Estimated
05:10PM 44.7649 17.7948 311° West  Level Estimated
05:11PM 44.8400 17.6706 310° West  Level Estimated
05:12PM 44.9150 17.5461 310° West  Level Estimated
05:13PM 44.9898 17.4213 310° West  Level Estimated
05:14PM 45.0645 17.2962 310° West  Level Estimated
05:15PM 45.1391 17.1707 310° West  Level Estimated
05:16PM 45.2135 17.0449 310° West  Level Estimated
05:17PM 45.2878 16.9188 310° West  Level Estimated
05:18PM 45.3619 16.7923 310° West  Level Estimated
05:18PM 46.8784 18.3341 320° Northwest 446 513 38,000  Level FlightAware ADS-B (LKCM)
05:19PM 46.9477 18.2472 319° Northwest 445 512 38,000  Level FlightAware ADS-B (LKCM)
05:20PM 47.0712 18.0921 319° Northwest 439 505 38,000  Level FlightAware ADS-B (LKCM)
05:21PM 47.1347 18.0119 319° Northwest 438 504 38,000  Level FlightAware ADS-B (LKCM)
05:22PM 47.1948 17.9358 319° Northwest 438 504 38,000  Level FlightAware ADS-B (LKCM)
05:22PM 47.2554 17.8587 319° Northwest 437 503 38,000  Level FlightAware ADS-B (LKCM)
05:23PM 47.3170 17.7801 319° Northwest 439 505 38,000  Level FlightAware ADS-B (LKCM)
05:23PM 47.3434 17.7463 318° Northwest 436 502 38,000  Level FlightAware ADS-B (ZSPD / PVG)
05:24PM 47.4033 17.6696 319° Northwest 441 507 38,000  Level FlightAware ADS-B (LKCM)
05:25PM 47.4697 17.5843 319° Northwest 441 507 38,000  Level FlightAware ADS-B (LKCM)
05:25PM 47.5288 17.5080 319° Northwest 441 507 38,000  Level FlightAware ADS-B (LKCM)
05:26PM 47.5862 17.4338 318° Northwest 437 503 38,000  Level FlightAware ADS-B (ZSPD / PVG)
05:26PM 47.6309 17.3760 318° Northwest 438 504 38,000  Level FlightAware ADS-B (ZSPD / PVG)
05:27PM 47.6829 17.3083 319° Northwest 442 509 38,000  Level FlightAware ADS-B (ZSPD / PVG)
05:28PM 47.7306 17.2461 318° Northwest 440 506 38,000  Level FlightAware ADS-B (ZSPD / PVG)
05:28PM 47.7957 17.1610 319° Northwest 442 509 38,000  Level FlightAware ADS-B (ZSPD / PVG)
05:29PM 47.8470 17.0856 311° West 439 505 38,000  Level FlightAware ADS-B (ZSPD / PVG)
05:29PM 47.8835 17.0198 309° West 440 506 38,000  Level FlightAware ADS-B (ZSPD / PVG)
05:30PM 47.9374 16.9218 309° West 437 503 38,000  Level FlightAware ADS-B (ZSPD / PVG)
05:31PM 47.9913 16.8238 309° West 436 502 38,000  Level FlightAware ADS-B (ZSPD / PVG)
05:31PM 48.0391 16.7367 309° West 434 499 38,000  Level FlightAware ADS-B (ZSPD / PVG)
05:32PM 48.0784 16.6645 309° West 434 499 38,000  Level FlightAware ADS-B (ZSPD / PVG)
05:32PM 48.1183 16.5910 309° West 434 499 38,000  Level FlightAware ADS-B (ZSPD / PVG)
05:33PM 48.1573 16.5191 309° West 434 499 38,000  Level FlightAware ADS-B (ZSPD / PVG)
05:33PM 48.2021 16.4370 309° West 435 501 38,000  Level FlightAware ADS-B (ETSE)
05:34PM 48.2410 16.3648 309° West 436 502 38,000  Level FlightAware ADS-B (LKCM)
05:35PM 48.2873 16.2787 309° West 435 501 38,000  Level FlightAware ADS-B (ETSE)
05:35PM 48.3388 16.1826 309° West 435 501 38,000  Level FlightAware ADS-B (ZSPD / PVG)
05:36PM 48.3819 16.1019 308° West 432 497 38,000  Level FlightAware ADS-B (ZSPD / PVG)
05:36PM 48.3950 16.0772 308° West 432 497 38,000  Level FlightAware ADS-B (ZSPD / PVG)
05:37PM 48.4345 16.0031 308° West 431 496 38,000  Level FlightAware ADS-B (ZSPD / PVG)
05:37PM 48.4687 15.9383 308° West 431 496 38,000  Level FlightAware ADS-B (ZSPD / PVG)
05:37PM 48.4909 15.8965 309° West 435 501 38,000  Level FlightAware ADS-B (EDDM / MUC)
05:38PM 48.5313 15.8205 309° West 436 502 38,000  Level FlightAware ADS-B (ETSE)
05:38PM 48.5442 15.7962 308° West 436 502 38,000  Level FlightAware ADS-B (EPWR / WRO)
05:39PM 48.6010 15.6880 309° West 436 502 38,000  Level FlightAware ADS-B (EDDM / MUC)
05:40PM 48.6591 15.5773 308° West 436 502 38,000  Level FlightAware ADS-B (ETSE)
05:40PM 48.6949 15.5086 308° West 435 501 38,000  Level FlightAware ADS-B (ETSE)
05:41PM 48.7386 15.4249 308° West 431 496 38,000  Level FlightAware ADS-B (ZSPD / PVG)
05:41PM 48.7767 15.3515 308° West 433 498 38,000  Level FlightAware ADS-B (ETSE)
05:42PM 48.8126 15.2827 308° West 430 495 38,000  Level FlightAware ADS-B (ZSPD / PVG)
05:42PM 48.8502 15.2101 308° West 432 497 38,000  Level FlightAware ADS-B (ETSE)
05:42PM 48.8755 15.1610 307° West 429 494 38,000  Level FlightAware ADS-B (ZSPD / PVG)
05:43PM 48.9220 15.0710 309° West 429 494 38,000  Level FlightAware ADS-B (ETSE)
05:44PM 48.9602 14.9999 309° West 428 493 38,000  Level FlightAware ADS-B (ETSE)
05:44PM 48.9990 14.9277 309° West 428 493 38,000  Level FlightAware ADS-B (ETSE)
05:44PM 49.0200 14.8884 307° West 429 494 38,000  Level FlightAware ADS-B (ZSPD / PVG)
05:45PM 49.0595 14.8140 309° West 428 493 38,000  Level FlightAware ADS-B (ETSE)
05:45PM 49.0956 14.7461 309° West 428 493 38,000  Level FlightAware ADS-B (ETSE)
05:46PM 49.1395 14.6632 309° West 428 493 38,000  Level FlightAware ADS-B (ETSE)
05:46PM 49.1755 14.5942 309° West 429 494 38,000  Level FlightAware ADS-B (ETSE)
05:47PM 49.2262 14.4975 309° West 430 495 38,000  Level FlightAware ADS-B (ETSE)
05:48PM 49.2661 14.4213 309° West 430 495 38,000  Level FlightAware ADS-B (ETSE)
05:48PM 49.3011 14.3541 309° West 428 493 38,000  Level FlightAware ADS-B (ETSE)
05:49PM 49.3529 14.2547 309° West 428 493 38,000  Level FlightAware ADS-B (ETSE)
05:49PM 49.3899 14.1833 308° West 429 494 38,000  Level FlightAware ADS-B (EDDM / MUC)
05:50PM 49.4239 14.1175 308° West 428 493 38,000  Level FlightAware ADS-B (LKPR / PRG)
05:51PM 49.4731 14.0219 308° West 429 494 38,000  Level FlightAware ADS-B (EDDM / MUC)
05:51PM 49.5225 13.9258 308° West 432 497 38,000  Level FlightAware ADS-B (EDDM / MUC)
05:52PM 49.5767 13.8204 308° West 433 498 38,000  Level FlightAware ADS-B (EPWR / WRO)
05:52PM 49.6183 13.7387 308° West 434 499 38,000 60 Level FlightAware ADS-B (EPWR / WRO)
05:53PM 49.6592 13.6578 308° West 433 498 38,100  Climbing FlightAware ADS-B (LKCM)
05:54PM 49.7007 13.5753 308° West 432 497 38,000 -120 Descending FlightAware ADS-B (EDDT / TXL)
05:54PM 49.7351 13.5071 308° West 431 496 38,000  Level FlightAware ADS-B (EDDT / TXL)
05:55PM 49.7753 13.4272 308° West 428 493 38,000  Level FlightAware ADS-B (EDDT / TXL)
05:55PM 49.8152 13.3480 308° West 428 493 38,000  Level FlightAware ADS-B (EDDT / TXL)
05:56PM 49.8546 13.2698 308° West 428 493 38,000  Level FlightAware ADS-B (EDDT / TXL)
05:56PM 49.8931 13.1929 308° West 428 493 38,000  Level FlightAware ADS-B (EDDT / TXL)
05:57PM 49.9329 13.1130 308° West 427 491 38,000  Level FlightAware ADS-B (EDDT / TXL)
05:57PM 49.9690 13.0399 308° West 429 494 38,000  Level FlightAware ADS-B (EDDT / TXL)
05:58PM 50.0068 12.9636 308° West 428 493 38,000  Level FlightAware ADS-B (EDDT / TXL)
05:58PM 50.0452 12.8862 308° West 429 494 38,000  Level FlightAware ADS-B (EDDT / TXL)
05:59PM 50.0845 12.8060 307° West 428 493 38,000  Level FlightAware ADS-B (EDDT / TXL)
05:59PM 50.1220 12.7294 307° West 427 491 38,000  Level FlightAware ADS-B (EDDT / TXL)
06:00PM 50.1604 12.6508 307° West 426 490 38,000  Level FlightAware ADS-B (EDDT / TXL)
06:00PM 50.1987 12.5725 307° West 425 489 38,000  Level FlightAware ADS-B (EDDT / TXL)
06:01PM 50.2368 12.4938 307° West 426 490 38,000  Level FlightAware ADS-B (EDDT / TXL)
06:01PM 50.2452 12.4758 301° West 426 490 38,000  Level FlightAware ADS-B (EDDM / MUC)
06:01PM 50.2552 12.4485 295° West 426 490 38,000  Level FlightAware ADS-B (EDDT / TXL)
06:01PM 50.2641 12.4117 288° West 428 493 38,000  Level FlightAware ADS-B (EDDT / TXL)
06:02PM 50.2832 12.3198 289° West 428 493 38,000  Level FlightAware ADS-B (EDDT / TXL)
06:03PM 50.3022 12.2339 289° West 428 493 38,000  Level FlightAware ADS-B (EDDT / TXL)
06:03PM 50.3241 12.1364 289° West 428 493 38,000  Level FlightAware ADS-B (ETSE)
06:04PM 50.3427 12.0524 289° West 427 491 38,000  Level FlightAware ADS-B (ETSE)
06:04PM 50.3622 11.9637 289° West 426 490 38,000  Level FlightAware ADS-B (EDDT / TXL)
06:05PM 50.3863 11.8678 293° West 425 489 38,000  Level FlightAware ADS-B (EDDT / TXL)
06:05PM 50.4104 11.7779 293° West 425 489 38,000  Level FlightAware ADS-B (EDDT / TXL)
06:06PM 50.4341 11.6872 292° West 424 488 38,000  Level FlightAware ADS-B (EDDT / TXL)
06:06PM 50.4582 11.5925 292° West 423 487 38,000  Level FlightAware ADS-B (EDDT / TXL)
06:07PM 50.4816 11.5008 292° West 425 489 38,000  Level FlightAware ADS-B (EDDT / TXL)
06:07PM 50.5049 11.4080 292° West 427 491 38,000  Level FlightAware ADS-B (EDDT / TXL)
06:08PM 50.5208 11.3445 291° West 428 493 38,000  Level FlightAware ADS-B (EDDM / MUC)
06:08PM 50.5429 11.2568 292° West 431 496 38,000  Level FlightAware ADS-B (EDDT / TXL)
06:09PM 50.5669 11.1623 292° West 433 498 38,000 60 Level FlightAware ADS-B (EDDT / TXL)
06:09PM 50.5906 11.0675 291° West 433 498 38,100 60 Climbing FlightAware ADS-B (EDDT / TXL)
06:10PM 50.6150 10.9691 291° West 430 495 38,100  Level FlightAware ADS-B (ETSE)
06:10PM 50.6398 10.8684 291° West 428 493 38,100 -120 Level FlightAware ADS-B (EDDT / TXL)
06:11PM 50.6602 10.7851 291° West 426 490 38,000 -120 Descending FlightAware ADS-B (EDDT / TXL)
06:11PM 50.6841 10.6872 291° West 425 489 38,000  Level FlightAware ADS-B (EDDT / TXL)
06:12PM 50.7057 10.5981 291° West 425 489 38,000  Level FlightAware ADS-B (EDDT / TXL)
06:12PM 50.7279 10.5063 291° West 424 488 38,000  Level FlightAware ADS-B (EDDT / TXL)
06:13PM 50.7486 10.4209 291° West 424 488 38,000  Level FlightAware ADS-B (ETSE)
06:14PM 50.7706 10.3298 291° West 425 489 38,000  Level FlightAware ADS-B (ETSE)
06:14PM 50.7926 10.2384 291° West 426 490 38,000  Level FlightAware ADS-B (EDDT / TXL)
06:15PM 50.8112 10.1606 291° West 426 490 38,000  Level FlightAware ADS-B (ETSE)
06:15PM 50.8331 10.0683 291° West 427 491 38,000  Level FlightAware ADS-B (EDDT / TXL)
06:16PM 50.8893 9.8308 290° West 427 491 38,000  Level FlightAware ADS-B (EDDT / TXL)
06:17PM 50.8699 9.9126 290° West 426 490 38,000  Level FlightAware ADS-B (EDDM / MUC)
06:19PM 50.9675 9.4951 290° West 423 487 38,000  Level FlightAware ADS-B (EDKL)
06:20PM 51.0081 9.3183 290° West 423 487 38,000  Level FlightAware ADS-B (EDKL)
06:22PM 51.0426 9.1561 288° West 419 482 38,000  Level FlightAware ADS-B (EDDM / MUC)
06:24PM 51.1493 8.6423 288° West 424 488 38,000  Level FlightAware ADS-B (EDKL)
06:25PM 51.2038 8.3727 288° West 425 489 38,000  Level FlightAware ADS-B (EDKL)
06:26PM 51.2444 8.1732 288° West 423 487 38,000  Level FlightAware ADS-B (EDKL)
06:26PM 51.2606 8.0921 288° West 424 488 38,000  Level FlightAware ADS-B (EDKL)
06:27PM 51.2811 7.9881 288° West 423 487 38,000  Level FlightAware ADS-B (EDKL)
06:28PM 51.3043 7.8704 288° West 423 487 38,000  Level FlightAware ADS-B (EDKL)
06:28PM 51.3165 7.8085 286° West 420 483 38,000  Level FlightAware ADS-B (EHGR / GLZ)
06:28PM 51.3338 7.7196 287° West 423 487 38,000  Level FlightAware ADS-B (EDKL)
06:29PM 51.3499 7.6368 287° West 426 490 38,000  Level FlightAware ADS-B (EDKL)
06:29PM 51.3719 7.5238 287° West 429 494 38,000  Level FlightAware ADS-B (EHGR / GLZ)
06:30PM 51.3894 7.4333 286° West 429 494 38,000  Level FlightAware ADS-B (EHGR / GLZ)
06:30PM 51.3985 7.3853 286° West 429 494 38,000  Level FlightAware ADS-B (EHGR / GLZ)
06:30PM 51.4075 7.3379 287° West 431 496 38,000 120 Level FlightAware ADS-B (EDLW / DTM)
06:31PM 51.4198 7.2744 287° West 431 496 38,100 60 Climbing FlightAware ADS-B (EDKL)
06:31PM 51.4388 7.1751 287° West 431 496 38,100 -120 Level FlightAware ADS-B (EDKL)
06:32PM 51.4572 7.0782 286° West 428 493 38,000 -120 Descending FlightAware ADS-B (EHGR / GLZ)
06:32PM 51.4711 7.0036 287° West 431 496 38,000  Level FlightAware ADS-B (EDKL)
06:33PM 51.4854 6.9269 287° West 430 495 38,000  Level FlightAware ADS-B (EDKL)
06:34PM 51.5124 6.7832 288° West 430 495 38,000  Level FlightAware ADS-B (EDKL)
06:34PM 51.5278 6.7135 291° West 429 494 38,000  Level FlightAware ADS-B (EHGR / GLZ)
06:35PM 51.5546 6.5996 291° West 428 493 38,000  Level FlightAware ADS-B (EDKL)
06:35PM 51.5751 6.5095 290° West 427 491 38,000  Level FlightAware ADS-B (EDKL)
06:35PM 51.5982 6.4054 289° West 425 489 38,000  Level FlightAware ADS-B (EDLW / DTM)
06:36PM 51.6082 6.3597 290° West 425 489 38,000  Level FlightAware ADS-B (EDLW / DTM)
06:36PM 51.6266 6.2764 290° West 423 487 38,000  Level FlightAware ADS-B (EHRD / RTM)
06:36PM 51.6375 6.2266 289° West 423 487 38,000  Level FlightAware ADS-B (EDLW / DTM)
06:37PM 51.6394 6.2178 288° West 420 483 38,000  Level FlightAware ADS-B (EHAM / AMS)
06:37PM 51.6596 6.1250 289° West 423 487 38,000  Level FlightAware ADS-B (EDKL)
06:37PM 51.6644 6.1030 288° West 420 483 38,000  Level FlightAware ADS-B (EHGR / GLZ)
06:38PM 51.6841 6.0121 288° West 420 483 38,000  Level FlightAware ADS-B (EHGR / GLZ)
06:38PM 51.6847 6.0094 289° West 423 487 38,000  Level FlightAware ADS-B (EDKL)
06:40PM 51.7506 5.7041 288° West 422 486 38,000  Level FlightAware ADS-B (EHGR / GLZ)
06:40PM 51.7766 5.5817 289° West 425 489 38,000  Level FlightAware ADS-B (EHAM / AMS)
06:40PM 51.7811 5.5610 289° West 425 489 38,000  Level FlightAware ADS-B (EDLW / DTM)
06:41PM 51.7891 5.5235 289° West 426 490 38,000  Level FlightAware ADS-B (EHRD / RTM)
06:41PM 51.8075 5.4366 289° West 425 489 38,000  Level FlightAware ADS-B (EHRD / RTM)
06:41PM 51.8175 5.3891 288° West 423 487 38,000  Level FlightAware ADS-B (EHGR / GLZ)
06:42PM 51.8377 5.2930 289° West 426 490 38,000  Level FlightAware ADS-B (EHRD / RTM)
06:42PM 51.8513 5.2283 289° West 427 491 38,000  Level FlightAware ADS-B (EHRD / RTM)
06:43PM 51.8708 5.1357 288° West 425 489 38,000  Level FlightAware ADS-B (EHGR / GLZ)
06:43PM 51.8868 5.0584 289° West 428 493 38,000  Level FlightAware ADS-B (EHRD / RTM)
06:43PM 51.8964 5.0118 287° West 425 489 38,000  Level FlightAware ADS-B (EHGR / GLZ)
06:44PM 51.9068 4.9614 287° West 425 489 38,000  Level FlightAware ADS-B (EHGR / GLZ)
06:44PM 51.9278 4.8594 288° West 426 490 38,000  Level FlightAware ADS-B (EHRD / RTM)
06:45PM 51.9473 4.7635 288° West 424 488 38,000  Level FlightAware ADS-B (EHGR / GLZ)
06:45PM 51.9661 4.6707 288° West 422 486 38,000  Level FlightAware ADS-B (EHRD / RTM)
06:46PM 51.9812 4.5965 288° West 422 486 38,000  Level FlightAware ADS-B (EHRD / RTM)
06:46PM 52.0035 4.4859 288° West 423 487 38,000  Level FlightAware ADS-B
06:47PM 52.0215 4.3967 288° West 423 487 38,000  Level FlightAware ADS-B (EGLF / FAB)
06:47PM 52.0381 4.3140 288° West 423 487 38,000  Level FlightAware ADS-B
06:48PM 52.0592 4.2078 288° West 423 487 38,000  Level FlightAware ADS-B (EGLC / LCY)
06:48PM 52.0775 4.1151 288° West 423 487 38,000  Level FlightAware ADS-B (EGLF / FAB)
06:49PM 52.0954 4.0238 288° West 422 486 38,000  Level FlightAware ADS-B (EGLF / FAB)
06:49PM 52.1130 3.9340 288° West 421 484 38,000  Level FlightAware ADS-B (EGLF / FAB)
06:50PM 52.1318 3.8377 288° West 421 484 38,000  Level FlightAware ADS-B (EHGR / GLZ)
06:50PM 52.1431 3.7800 287° West 421 484 38,000  Level FlightAware ADS-B (EGXP / SQZ)
06:51PM 52.1615 3.6841 287° West 422 486 38,000  Level FlightAware ADS-B (EHRD / RTM)
06:51PM 52.1703 3.6382 286° West 420 483 38,000  Level FlightAware ADS-B (EHGR / GLZ)
06:51PM 52.1884 3.5438 286° West 421 484 38,000  Level FlightAware ADS-B (EHGR / GLZ)
06:52PM 52.2063 3.4514 288° West 424 488 38,000  Level FlightAware ADS-B (EGLF / FAB)
06:52PM 52.2223 3.3678 286° West 421 484 38,000 60 Level FlightAware ADS-B (EHGR / GLZ)
06:53PM 52.2391 3.2793 287° West 421 484 38,100  Climbing FlightAware ADS-B
06:54PM 52.2582 3.1789 287° West 420 483 38,000 -120 Descending FlightAware ADS-B (EGLF / FAB)
06:54PM 52.2709 3.1121 287° West 419 482 38,000  Level FlightAware ADS-B
06:54PM 52.2755 3.0877 287° West 419 482 38,000  Level FlightAware ADS-B (EGLF / FAB)
06:54PM 52.2910 3.0037 287° West 419 482 38,000  Level FlightAware ADS-B
06:55PM 52.2911 3.0032 287° West 420 483 38,000  Level FlightAware ADS-B (EGLF / FAB)
06:55PM 52.3032 2.9369 286° West 417 480 38,000  Level FlightAware ADS-B (EGNR / CEG)
06:55PM 52.3078 2.9117 286° West 417 480 38,000  Level FlightAware ADS-B (EHGR / GLZ)
06:55PM 52.3087 2.9071 287° West 420 483 38,000  Level FlightAware ADS-B
06:55PM 52.3240 2.8237 287° West 421 484 38,000  Level FlightAware ADS-B (EGSR)
06:56PM 52.3261 2.8121 287° West 421 484 38,000  Level FlightAware ADS-B
06:56PM 52.3419 2.7267 287° West 421 484 38,000  Level FlightAware ADS-B (EGXP / SQZ)
06:56PM 52.3451 2.7092 287° West 421 484 38,000  Level FlightAware ADS-B
06:56PM 52.3522 2.6703 286° West 419 482 38,000  Level FlightAware ADS-B (EGNR / CEG)
06:56PM 52.3572 2.6430 286° West 419 482 38,000  Level FlightAware ADS-B (EGHO)
06:57PM 52.3641 2.6061 287° West 421 484 38,000  Level FlightAware ADS-B
06:57PM 52.3755 2.5433 287° West 421 484 38,000  Level FlightAware ADS-B (EGLF / FAB)
06:57PM 52.3847 2.4926 287° West 421 484 38,000  Level FlightAware ADS-B
06:58PM 52.3921 2.4518 286° West 420 483 38,000 180 Level FlightAware ADS-B (EGLF / FAB)
06:58PM 52.4013 2.3999 286° West 419 482 38,100  Climbing FlightAware ADS-B
06:58PM 52.4076 2.3644 286° West 419 482 38,000 -240 Descending FlightAware ADS-B (EGLF / FAB)
06:58PM 52.4180 2.3063 286° West 418 481 38,000  Level FlightAware ADS-B
06:59PM 52.4248 2.2684 286° West 417 480 38,000  Level FlightAware ADS-B (EHGR / GLZ)
06:59PM 52.4370 2.1999 286° West 418 481 38,000  Level FlightAware ADS-B
06:59PM 52.4457 2.1521 286° West 418 481 38,000  Level FlightAware ADS-B (EGNR / CEG)
06:59PM 52.4537 2.1069 286° West 419 482 38,000  Level FlightAware ADS-B
07:00PM 52.4609 2.0666 286° West 419 482 38,000  Level FlightAware ADS-B (EGXP / SQZ)
07:00PM 52.4702 2.0141 286° West 420 483 38,000  Level FlightAware ADS-B
07:00PM 52.4785 1.9674 286° West 420 483 38,000  Level FlightAware ADS-B (EGLF / FAB)
07:00PM 52.4871 1.9185 286° West 420 483 38,000  Level FlightAware ADS-B
07:01PM 52.4944 1.8762 286° West 419 482 38,000  Level FlightAware ADS-B (EGLF / FAB)
07:01PM 52.5034 1.8248 286° West 419 482 38,000 120 Level FlightAware ADS-B
07:01PM 52.5142 1.7625 286° West 418 481 38,100 180 Climbing FlightAware ADS-B (EGHO)
07:01PM 52.5200 1.7289 286° West 418 481 38,100  Level FlightAware ADS-B
07:02PM 52.5300 1.6705 286° West 416 479 38,100 -240 Level FlightAware ADS-B (EHGR / GLZ)
07:02PM 52.5359 1.6364 286° West 415 478 38,000 -240 Descending FlightAware ADS-B
07:02PM 52.5456 1.5802 286° West 415 478 38,000  Level FlightAware ADS-B (EHGR / GLZ)
07:02PM 52.5518 1.5436 286° West 414 476 38,000  Level FlightAware ADS-B
07:03PM 52.5625 1.4812 286° West 414 476 38,000  Level FlightAware ADS-B (EGLF / FAB)
07:03PM 52.5714 1.4297 286° West 413 475 38,000  Level FlightAware ADS-B
07:03PM 52.5781 1.3906 286° West 414 476 38,000  Level FlightAware ADS-B (EGLF / FAB)
07:04PM 52.5896 1.3230 286° West 413 475 38,000  Level FlightAware ADS-B
07:04PM 52.5935 1.3004 286° West 413 475 38,000 -180 Level FlightAware ADS-B (EGLF / FAB)
07:04PM 52.6092 1.2074 286° West 412 474 37,900  Descending FlightAware UK
07:04PM 52.6078 1.2156 286° West 412 474 38,000 1,200 Climbing FlightAware ADS-B (EGLF / FAB)
07:04PM 52.6112 1.1957 285° West 412 474 38,000  Level FlightAware ADS-B
07:05PM 52.6156 1.1694 286° West 412 474 38,000  Level FlightAware ADS-B (EGLF / FAB)
07:05PM 52.6196 1.1456 284° West 410 472 38,000  Level FlightAware ADS-B (EGHO)
07:05PM 52.6267 1.1034 285° West 411 473 38,000  Level FlightAware ADS-B
07:05PM 52.6357 1.0495 285° West 411 473 38,000  Level FlightAware ADS-B (EGLC / LCY)
07:05PM 52.6422 1.0104 285° West 412 474 38,000  Level FlightAware ADS-B
07:06PM 52.6575 0.9180 285° West 412 474 38,000  Level FlightAware UK
07:06PM 52.6569 0.9220 285° West 413 475 38,000  Level FlightAware ADS-B
07:06PM 52.6622 0.8900 284° West 411 473 38,000  Level FlightAware ADS-B (EGHO)
07:06PM 52.6728 0.8256 285° West 412 474 38,000  Level FlightAware ADS-B
07:07PM 52.6769 0.8011 284° West 409 471 38,000  Level FlightAware ADS-B (EHGR / GLZ)
07:07PM 52.6852 0.7503 285° West 412 474 38,000  Level FlightAware ADS-B (EGSR)
07:07PM 52.6890 0.7276 285° West 411 473 38,000  Level FlightAware ADS-B
07:07PM 52.6944 0.6943 284° West 409 471 38,000  Level FlightAware ADS-B (EGNR / CEG)
07:07PM 52.6964 0.6821 284° West 409 471 38,000  Level FlightAware ADS-B (EHGR / GLZ)
07:08PM 52.7037 0.6370 284° West 408 470 38,000  Level FlightAware ADS-B (EHGR / GLZ)
07:08PM 52.7047 0.6313 285° West 410 472 38,000  Level FlightAware ADS-B
07:08PM 52.7047 0.6312 284° West 408 470 38,000  Level FlightAware ADS-B
07:08PM 52.7108 0.5935 284° West 408 470 38,000  Level FlightAware ADS-B (EGHO)
07:08PM 52.7151 0.5672 284° West 407 468 38,000  Level FlightAware ADS-B
07:08PM 52.7194 0.5409 285° West 409 471 38,000  Level FlightAware ADS-B
07:08PM 52.7204 0.5350 285° West 409 471 38,000  Level FlightAware ADS-B (EGFH / SWS)
07:08PM 52.7280 0.4876 284° West 407 468 38,000  Level FlightAware ADS-B (EGBK / ORM)
07:08PM 52.7305 0.4717 284° West 407 468 38,000  Level FlightAware ADS-B (EHGR / GLZ)
07:09PM 52.7341 0.4493 285° West 409 471 38,000 -480 Level FlightAware ADS-B
07:09PM 52.7366 0.4339 284° West 408 470 37,900 -900 Descending FlightAware ADS-B (EGNR / CEG)
07:09PM 52.7409 0.4069 284° West 407 468 37,800 -960 Descending FlightAware ADS-B (EGDM)
07:09PM 52.7457 0.3769 284° West 405 466 37,600 -1,200 Descending FlightAware ADS-B
07:09PM 52.7480 0.3629 284° West 405 466 37,500 -1,020 Descending FlightAware ADS-B (EGNR / CEG)
07:09PM 52.7489 0.3571 285° West 405 466 37,500  Level FlightAware ADS-B
07:09PM 52.7512 0.3425 284° West 403 464 37,500 -480 Level FlightAware ADS-B (EGCD)
07:09PM 52.7542 0.3232 285° West 403 464 37,400 -900 Descending FlightAware ADS-B (EGHO)
07:10PM 52.7640 0.2623 285° West 400 460 37,100 -1,080 Descending FlightAware ADS-B
07:10PM 52.7723 0.2097 284° West 399 459 36,700 -1,020 Descending FlightAware ADS-B (EGBE / CVT)
07:10PM 52.7779 0.1741 284° West 397 457 36,600 -780 Descending FlightAware ADS-B
07:10PM 52.7879 0.1102 285° West 394 453 36,300 -960 Descending FlightAware ADS-B (EGFH / SWS)
07:11PM 52.7929 0.0787 285° West 392 451 36,100 -1,020 Descending FlightAware ADS-B
07:11PM 52.8009 0.0280 285° West 389 448 35,800 -840 Descending FlightAware ADS-B (EGBE / CVT)
07:11PM 52.8065 -0.0074 285° West 387 445 35,700 -960 Descending FlightAware ADS-B
07:11PM 52.8160 -0.0676 285° West 389 448 35,300 -1,020 Descending FlightAware ADS-B (EGBK / ORM)
07:12PM 52.8205 -0.0957 285° West 391 450 35,200 -1,200 Descending FlightAware ADS-B
07:12PM 52.8204 -0.0957 285° West 391 450 34,900 -1,320 Descending FlightAware ADS-B (EGKA / ESH)
07:12PM 52.8268 -0.1357 285° West 391 450 34,800 -1,200 Descending FlightAware ADS-B (EGLC / LCY)
07:12PM 52.8343 -0.1840 284° West 389 448 34,500 -2,280 Descending FlightAware ADS-B
07:13PM 52.8454 -0.2567 284° West 387 445 33,400 -2,640 Descending FlightAware ADS-B (EGDM)
07:13PM 52.8476 -0.2708 284° West 387 445 33,200 -2,520 Descending FlightAware ADS-B
07:13PM 52.8474 -0.2696 284° West 387 445 32,900 -3,240 Descending FlightAware ADS-B (EGCD)
07:13PM 52.8615 -0.3612 284° West 389 448 31,500 -3,420 Descending FlightAware ADS-B
07:13PM 52.8644 -0.3808 284° West 390 449 31,100 -3,420 Descending FlightAware ADS-B
07:14PM 52.8750 -0.4493 284° West 393 452 29,800 -3,540 Descending FlightAware ADS-B
07:14PM 52.8783 -0.4711 284° West 395 455 29,300 -3,600 Descending FlightAware ADS-B (EGLF / FAB)
07:14PM 52.8886 -0.5379 284° West 404 465 28,000 -3,420 Descending FlightAware ADS-B
07:14PM 52.8915 -0.5569 284° West 407 468 27,600 -2,760 Descending FlightAware ADS-B (EGLF / FAB)
07:15PM 52.9024 -0.6310 284° West 409 471 26,600 -2,400 Descending FlightAware ADS-B
07:15PM 52.9044 -0.6446 284° West 412 474 26,400 -2,640 Descending FlightAware ADS-B (EGLF / FAB)
07:15PM 52.9162 -0.7242 284° West 419 482 25,300 -3,000 Descending FlightAware ADS-B
07:15PM 52.9191 -0.7433 284° West 420 483 24,900 -3,120 Descending FlightAware ADS-B (EGLF / FAB)
07:16PM 52.9304 -0.8192 284° West 413 475 23,700 -3,000 Descending FlightAware ADS-B
07:16PM 52.9332 -0.8375 284° West 411 473 23,400 -2,940 Descending FlightAware ADS-B (EGLF / FAB)
07:16PM 52.9444 -0.9134 284° West 404 465 22,200 -2,820 Descending FlightAware ADS-B
07:16PM 52.9463 -0.9264 284° West 403 464 22,000 -2,640 Descending FlightAware ADS-B (EGLF / FAB)
07:17PM 52.9552 -0.9863 284° West 396 456 21,100 -2,820 Descending FlightAware ADS-B (EGLF / FAB)
07:17PM 52.9577 -1.0032 284° West 395 455 20,800 -2,640 Descending FlightAware ADS-B
07:17PM 52.9690 -1.0802 284° West 389 448 19,700 -2,520 Descending FlightAware ADS-B (EGNA)
07:17PM 52.9712 -1.0949 284° West 388 447 19,500 -2,400 Descending FlightAware ADS-B
07:17PM 52.9730 -1.1079 284° West 387 445 19,300 -2,640 Descending FlightAware ADS-B (EGXP / SQZ)
07:18PM 52.9809 -1.1616 284° West 385 443 18,500 -2,640 Descending FlightAware ADS-B (EGLF / FAB)
07:18PM 52.9838 -1.1817 284° West 384 442 18,200 -2,700 Descending FlightAware ADS-B
07:18PM 52.9884 -1.2134 283° West 384 442 17,700 -2,400 Descending FlightAware ADS-B (EGLF / FAB)
07:18PM 52.9968 -1.2717 284° West 381 438 16,900 -2,280 Descending FlightAware ADS-B (EGLF / FAB)
07:18PM 52.9981 -1.2807 284° West 381 438 16,800 -2,820 Descending FlightAware ADS-B
07:19PM 53.0033 -1.3159 282° West 378 435 16,200 -2,700 Descending FlightAware ADS-B (EGBJ / GLO)
07:19PM 53.0122 -1.3771 284° West 379 436 15,300 -2,460 Descending FlightAware ADS-B
07:19PM 53.0163 -1.4061 283° West 376 433 14,900 -1,860 Descending FlightAware ADS-B (EGXW / WTN)
07:20PM 53.0264 -1.4766 283° West 366 421 14,200 -1,800 Descending FlightAware ADS-B
07:20PM 53.0285 -1.4916 283° West 362 417 14,000 -2,520 Descending FlightAware ADS-B
07:20PM 53.0398 -1.5722 283° West 360 414 12,700 -2,460 Descending FlightAware ADS-B (EGXW / WTN)
07:21PM 53.0520 -1.6592 283° West 353 406 11,500 -2,460 Descending FlightAware ADS-B (EGLF / FAB)
07:21PM 53.0627 -1.7365 283° West 353 406 10,200 -2,400 Descending FlightAware ADS-B (EGLF / FAB)
07:22PM 53.0747 -1.8213 282° West 341 392 9,000 -2,280 Descending FlightAware ADS-B (EGBJ / GLO)
07:22PM 53.0784 -1.8475 284° West 342 394 8,600 -1,680 Descending FlightAware ADS-B
07:22PM 53.0840 -1.8860 284° West 341 392 8,300 -1,320 Descending FlightAware ADS-B (EGXW / WTN)
07:23PM 53.0946 -1.9390 294° West 335 386 7,800 -1,680 Descending FlightAware ADS-B (EGNA)
07:23PM 53.1039 -1.9723 296° West 333 383 7,300 -2,340 Descending FlightAware ADS-B (EGNA)
07:23PM 53.1145 -2.0084 296° West 333 383 6,600 -2,880 Descending FlightAware ADS-B (EGNA)
07:23PM 53.1292 -2.0583 296° West 334 384 5,600 -2,460 Descending FlightAware ADS-B (EGNR / CEG)
07:24PM 53.1404 -2.0959 296° West 331 381 5,100 -1,320 Descending FlightAware ADS-B (EGNA)
07:24PM 53.1542 -2.1435 295° West 327 376 4,800 -1,080 Descending FlightAware ADS-B (EGCC / MAN)
07:24PM 53.1634 -2.1758 294° West 316 364 4,500 -1,200 Descending FlightAware ADS-B
07:24PM 53.1701 -2.1988 295° West 311 358 4,300 -1,620 Descending FlightAware ADS-B (EGNR / CEG)
07:25PM 53.1826 -2.2395 296° West 301 346 3,700 -1,800 Descending FlightAware ADS-B (EGNR / CEG)
07:25PM 53.1925 -2.2713 297° West 297 342 3,300 -1,260 Descending FlightAware ADS-B (EGCC / MAN)
07:25PM 53.2038 -2.3081 297° West 286 329 3,000 -900 Descending FlightAware ADS-B (EGCD)
07:26PM 53.2132 -2.3388 295° West 271 312 2,800 -900 Descending FlightAware ADS-B
07:26PM 53.2233 -2.3721 297° West 261 300 2,500 -900 Descending FlightAware ADS-B (EGBE / CVT)
07:26PM 53.2354 -2.4118 295° West 240 276 2,200 -720 Descending FlightAware ADS-B
07:27PM 53.2474 -2.4412 323° Northwest 225 259 2,000 -480 Descending FlightAware ADS-B
07:27PM 53.2524 -2.4456 337° Northwest 219 252 2,000  Level FlightAware ADS-B (EGCC / MAN)
07:27PM 53.2565 -2.4474 348° North 214 246 2,000  Level FlightAware ADS-B (EGNR / CEG)
07:27PM 53.2657 -2.4460 16° North 200 230 2,000 -480 Level FlightAware ADS-B
07:27PM 53.2701 -2.4424 29° Northeast 204 235 1,900 -600 Descending FlightAware ADS-B (EGCC / MAN)
07:27PM 53.2785 -2.4299 48° Northeast 193 222 1,800 -300 Descending FlightAware ADS-B (EGCD)
07:27PM 53.2823 -2.4224 52° Northeast 182 209 1,800 -720 Level FlightAware ADS-B (EGCC / MAN)
07:28PM 53.2932 -2.4001 51° Northeast 165 190 1,500 -900 Descending FlightAware ADS-B (EGCC / MAN)
07:28PM 53.2958 -2.3947 51° Northeast 162 186 1,400 -720 Descending FlightAware ADS-B
07:28PM 53.3043 -2.3772 53° Northeast 144 166 1,200 -720 Descending FlightAware ADS-B
07:28PM 53.3112 -2.3629 51° Northeast 137 158 1,000 -780 Descending FlightAware ADS-B (EGCC / MAN)
07:29PM 53.3169 -2.3512 51° Northeast 133 153 800 -840 Descending FlightAware ADS-B (EGNR / CEG)
07:29PM 53.3250 -2.3344 51° Northeast 130 150 500 -780 Descending FlightAware ADS-B (EGNR / CEG)
07:29PM 53.3328 -2.3184 51° Northeast 129 148 300 -600 Descending FlightAware ADS-B (EGNR / CEG)